Sidney, Texas
Current Conditions -  °F | °C
As of 8:15 PM on Friday 19 Dec 2014 (Local Time) from KMKN Reporting Station
Overcast Overcast  
Wind Chill: 47°   Ceiling: 1900
Heat Index: 47°   Visibility: 10mi
Dew Point: 46°   Wind: 3mph
Humidity: 99%   Direction: 30°NNE
Pressure: 30.19"   Gusts: NA
Location:  31.94°N, 98.74°W
Report Text: KMKN 200215Z AUTO 03003KT 10SM OVC019 08/08 A3019 RMK AO2 T00810080
Loading
Personal Weather Stations






























Interactive Weather Map New forecast layout! Learn more

10-Day Weather Forecast

Advertisements
Track Severe Weather on mobile